sensor_id;sensor_type;location;lat;lon;timestamp;temperature;humidity
774;DHT22;370;48.810;9.150;2022-07-01T00:02:22;16.00;47.40
774;DHT22;370;48.810;9.150;2022-07-01T00:04:49;16.00;48.10
774;DHT22;370;48.810;9.150;2022-07-01T00:07:16;16.00;49.40
774;DHT22;370;48.810;9.150;2022-07-01T00:09:43;15.90;45.60
774;DHT22;370;48.810;9.150;2022-07-01T00:12:10;15.90;42.90
774;DHT22;370;48.810;9.150;2022-07-01T00:14:38;15.80;43.80
774;DHT22;370;48.810;9.150;2022-07-01T00:17:05;15.80;41.20
774;DHT22;370;48.810;9.150;2022-07-01T00:19:31;15.70;38.40
774;DHT22;370;48.810;9.150;2022-07-01T00:21:58;15.60;37.00
774;DHT22;370;48.810;9.150;2022-07-01T00:24:26;15.60;38.60
774;DHT22;370;48.810;9.150;2022-07-01T00:26:53;15.60;41.80
774;DHT22;370;48.810;9.150;2022-07-01T00:29:20;15.60;40.90
774;DHT22;370;48.810;9.150;2022-07-01T00:31:48;15.60;38.70
774;DHT22;370;48.810;9.150;2022-07-01T00:34:14;15.60;36.90
774;DHT22;370;48.810;9.150;2022-07-01T00:36:41;15.60;37.40
774;DHT22;370;48.810;9.150;2022-07-01T00:39:08;15.60;36.90
774;DHT22;370;48.810;9.150;2022-07-01T00:41:35;15.60;38.10
774;DHT22;370;48.810;9.150;2022-07-01T00:44:03;15.50;41.30
774;DHT22;370;48.810;9.150;2022-07-01T00:46:30;15.40;42.30
774;DHT22;370;48.810;9.150;2022-07-01T00:48:59;15.40;45.40
774;DHT22;370;48.810;9.150;2022-07-01T00:51:26;15.30;45.70
774;DHT22;370;48.810;9.150;2022-07-01T00:53:54;15.30;43.90
774;DHT22;370;48.810;9.150;2022-07-01T00:56:23;15.30;45.40
774;DHT22;370;48.810;9.150;2022-07-01T00:58:50;15.30;46.70
774;DHT22;370;48.810;9.150;2022-07-01T01:01:17;15.30;47.40
774;DHT22;370;48.810;9.150;2022-07-01T01:03:44;15.40;46.30
774;DHT22;370;48.810;9.150;2022-07-01T01:06:13;15.40;47.10
774;DHT22;370;48.810;9.150;2022-07-01T01:08:40;15.40;47.30
774;DHT22;370;48.810;9.150;2022-07-01T01:11:07;15.40;46.40
774;DHT22;370;48.810;9.150;2022-07-01T01:13:34;15.40;45.40
774;DHT22;370;48.810;9.150;2022-07-01T01:16:00;15.40;45.50
774;DHT22;370;48.810;9.150;2022-07-01T01:18:27;15.40;42.90
774;DHT22;370;48.810;9.150;2022-07-01T01:20:55;15.40;43.50
774;DHT22;370;48.810;9.150;2022-07-01T01:23:22;15.30;43.10
774;DHT22;370;48.810;9.150;2022-07-01T01:25:49;15.30;43.10
774;DHT22;370;48.810;9.150;2022-07-01T01:28:16;15.30;43.00
774;DHT22;370;48.810;9.150;2022-07-01T01:30:43;15.20;42.20
774;DHT22;370;48.810;9.150;2022-07-01T01:33:10;15.20;40.00
774;DHT22;370;48.810;9.150;2022-07-01T01:35:37;15.20;39.90
774;DHT22;370;48.810;9.150;2022-07-01T01:38:05;15.20;44.10
774;DHT22;370;48.810;9.150;2022-07-01T01:40:32;15.10;41.40
774;DHT22;370;48.810;9.150;2022-07-01T01:42:59;15.10;41.70
774;DHT22;370;48.810;9.150;2022-07-01T01:45:26;15.10;42.40
774;DHT22;370;48.810;9.150;2022-07-01T01:47:53;15.10;43.70
774;DHT22;370;48.810;9.150;2022-07-01T01:50:20;15.10;44.70
774;DHT22;370;48.810;9.150;2022-07-01T01:52:47;15.10;43.00
774;DHT22;370;48.810;9.150;2022-07-01T01:55:15;15.10;42.10
774;DHT22;370;48.810;9.150;2022-07-01T01:57:42;15.10;43.70
774;DHT22;370;48.810;9.150;2022-07-01T02:00:10;15.10;42.30
774;DHT22;370;48.810;9.150;2022-07-01T02:02:36;15.10;42.80
774;DHT22;370;48.810;9.150;2022-07-01T02:05:04;15.00;45.10
774;DHT22;370;48.810;9.150;2022-07-01T02:07:31;15.00;44.30
774;DHT22;370;48.810;9.150;2022-07-01T02:09:58;15.00;43.80
774;DHT22;370;48.810;9.150;2022-07-01T02:12:26;15.00;45.20
774;DHT22;370;48.810;9.150;2022-07-01T02:14:52;15.00;45.10
774;DHT22;370;48.810;9.150;2022-07-01T02:17:19;15.00;46.20
774;DHT22;370;48.810;9.150;2022-07-01T02:19:46;14.90;46.70
774;DHT22;370;48.810;9.150;2022-07-01T02:22:13;14.90;48.60
774;DHT22;370;48.810;9.150;2022-07-01T02:24:39;14.80;48.90
774;DHT22;370;48.810;9.150;2022-07-01T02:27:06;14.70;49.50
774;DHT22;370;48.810;9.150;2022-07-01T02:29:34;14.70;51.10
774;DHT22;370;48.810;9.150;2022-07-01T02:32:01;14.70;53.50
774;DHT22;370;48.810;9.150;2022-07-01T02:34:28;14.70;51.80
774;DHT22;370;48.810;9.150;2022-07-01T02:36:54;14.70;51.50
774;DHT22;370;48.810;9.150;2022-07-01T02:39:21;14.70;50.90
774;DHT22;370;48.810;9.150;2022-07-01T02:41:48;14.70;51.20
774;DHT22;370;48.810;9.150;2022-07-01T02:44:45;14.70;52.80
774;DHT22;370;48.810;9.150;2022-07-01T02:47:12;14.70;52.80
774;DHT22;370;48.810;9.150;2022-07-01T02:49:38;14.70;50.50
774;DHT22;370;48.810;9.150;2022-07-01T02:52:06;14.70;50.60
774;DHT22;370;48.810;9.150;2022-07-01T02:54:32;14.70;50.40
774;DHT22;370;48.810;9.150;2022-07-01T02:56:59;14.70;50.20
774;DHT22;370;48.810;9.150;2022-07-01T02:59:26;14.60;47.50
774;DHT22;370;48.810;9.150;2022-07-01T03:01:55;14.70;49.00
774;DHT22;370;48.810;9.150;2022-07-01T03:04:22;14.70;48.20
774;DHT22;370;48.810;9.150;2022-07-01T03:06:49;14.70;46.90
774;DHT22;370;48.810;9.150;2022-07-01T03:09:15;14.70;48.70
774;DHT22;370;48.810;9.150;2022-07-01T03:11:42;14.70;49.50
774;DHT22;370;48.810;9.150;2022-07-01T03:14:09;14.70;46.60
774;DHT22;370;48.810;9.150;2022-07-01T03:16:36;14.80;47.90
774;DHT22;370;48.810;9.150;2022-07-01T03:19:04;14.80;47.50
774;DHT22;370;48.810;9.150;2022-07-01T03:21:31;14.80;43.70
774;DHT22;370;48.810;9.150;2022-07-01T03:23:58;14.80;43.00
774;DHT22;370;48.810;9.150;2022-07-01T03:26:25;14.90;43.50
774;DHT22;370;48.810;9.150;2022-07-01T03:28:51;14.90;44.10
774;DHT22;370;48.810;9.150;2022-07-01T03:31:18;15.10;41.80
774;DHT22;370;48.810;9.150;2022-07-01T03:33:45;15.10;39.30
774;DHT22;370;48.810;9.150;2022-07-01T03:36:13;15.10;39.10
774;DHT22;370;48.810;9.150;2022-07-01T03:38:40;15.20;38.10
774;DHT22;370;48.810;9.150;2022-07-01T03:41:08;15.20;36.80
774;DHT22;370;48.810;9.150;2022-07-01T03:43:34;15.30;35.60
774;DHT22;370;48.810;9.150;2022-07-01T03:46:01;15.30;36.30
774;DHT22;370;48.810;9.150;2022-07-01T03:48:28;15.30;35.10
774;DHT22;370;48.810;9.150;2022-07-01T03:50:54;15.30;35.10
774;DHT22;370;48.810;9.150;2022-07-01T03:53:22;15.40;34.00
774;DHT22;370;48.810;9.150;2022-07-01T03:56:07;15.40;32.60
774;DHT22;370;48.810;9.150;2022-07-01T03:58:33;15.50;32.30
774;DHT22;370;48.810;9.150;2022-07-01T04:01:00;15.50;31.20
774;DHT22;370;48.810;9.150;2022-07-01T04:03:27;15.40;31.00
774;DHT22;370;48.810;9.150;2022-07-01T04:05:53;15.50;33.50
774;DHT22;370;48.810;9.150;2022-07-01T04:08:20;15.50;31.10
774;DHT22;370;48.810;9.150;2022-07-01T04:10:48;15.50;30.50
774;DHT22;370;48.810;9.150;2022-07-01T04:13:19;15.60;31.40
774;DHT22;370;48.810;9.150;2022-07-01T04:15:46;15.60;32.20
774;DHT22;370;48.810;9.150;2022-07-01T04:18:13;15.60;35.40
774;DHT22;370;48.810;9.150;2022-07-01T04:20:39;15.60;34.20
774;DHT22;370;48.810;9.150;2022-07-01T04:23:06;15.50;32.70
774;DHT22;370;48.810;9.150;2022-07-01T04:25:32;15.40;34.50
774;DHT22;370;48.810;9.150;2022-07-01T04:28:00;15.40;35.30
774;DHT22;370;48.810;9.150;2022-07-01T04:30:29;15.30;33.20
774;DHT22;370;48.810;9.150;2022-07-01T04:32:55;15.40;33.10
774;DHT22;370;48.810;9.150;2022-07-01T04:35:22;15.30;34.60
774;DHT22;370;48.810;9.150;2022-07-01T04:37:49;15.30;33.10
774;DHT22;370;48.810;9.150;2022-07-01T04:40:16;15.30;33.90
774;DHT22;370;48.810;9.150;2022-07-01T04:42:42;15.30;33.60
774;DHT22;370;48.810;9.150;2022-07-01T04:45:10;15.30;34.40
774;DHT22;370;48.810;9.150;2022-07-01T04:47:36;15.30;33.20
774;DHT22;370;48.810;9.150;2022-07-01T04:50:04;15.30;33.90
774;DHT22;370;48.810;9.150;2022-07-01T04:52:30;15.30;35.00
774;DHT22;370;48.810;9.150;2022-07-01T04:54:57;15.40;35.60
774;DHT22;370;48.810;9.150;2022-07-01T04:57:24;15.40;36.50
774;DHT22;370;48.810;9.150;2022-07-01T04:59:51;15.40;35.20
774;DHT22;370;48.810;9.150;2022-07-01T05:02:19;15.30;36.20
774;DHT22;370;48.810;9.150;2022-07-01T05:04:45;15.20;38.40
774;DHT22;370;48.810;9.150;2022-07-01T05:07:12;15.20;37.20
774;DHT22;370;48.810;9.150;2022-07-01T05:09:53;15.20;37.90
774;DHT22;370;48.810;9.150;2022-07-01T05:12:20;15.10;40.30
774;DHT22;370;48.810;9.150;2022-07-01T05:14:46;15.00;39.30
774;DHT22;370;48.810;9.150;2022-07-01T05:17:13;14.80;42.00
774;DHT22;370;48.810;9.150;2022-07-01T05:19:41;14.70;43.70
774;DHT22;370;48.810;9.150;2022-07-01T05:22:31;14.60;45.20
774;DHT22;370;48.810;9.150;2022-07-01T05:24:57;14.60;48.40
774;DHT22;370;48.810;9.150;2022-07-01T05:27:24;14.60;51.70
774;DHT22;370;48.810;9.150;2022-07-01T05:29:51;14.70;52.70
774;DHT22;370;48.810;9.150;2022-07-01T05:32:19;14.70;52.80
774;DHT22;370;48.810;9.150;2022-07-01T05:34:47;14.80;54.80
774;DHT22;370;48.810;9.150;2022-07-01T05:37:13;14.90;54.90
774;DHT22;370;48.810;9.150;2022-07-01T05:39:43;14.80;48.90
774;DHT22;370;48.810;9.150;2022-07-01T05:42:10;14.90;48.20
774;DHT22;370;48.810;9.150;2022-07-01T05:44:37;14.90;48.60
774;DHT22;370;48.810;9.150;2022-07-01T05:47:04;14.90;48.50
774;DHT22;370;48.810;9.150;2022-07-01T05:49:31;15.00;48.00
774;DHT22;370;48.810;9.150;2022-07-01T05:51:59;15.00;47.40
774;DHT22;370;48.810;9.150;2022-07-01T05:54:26;15.10;45.20
774;DHT22;370;48.810;9.150;2022-07-01T05:56:53;15.20;45.30
774;DHT22;370;48.810;9.150;2022-07-01T05:59:20;15.30;45.40
774;DHT22;370;48.810;9.150;2022-07-01T06:01:47;15.20;41.50
774;DHT22;370;48.810;9.150;2022-07-01T06:04:16;15.20;41.00
774;DHT22;370;48.810;9.150;2022-07-01T06:06:42;15.20;41.70
774;DHT22;370;48.810;9.150;2022-07-01T06:09:10;15.30;45.30
774;DHT22;370;48.810;9.150;2022-07-01T06:11:37;15.30;44.20
774;DHT22;370;48.810;9.150;2022-07-01T06:14:04;15.30;44.00
774;DHT22;370;48.810;9.150;2022-07-01T06:16:31;15.40;45.40
774;DHT22;370;48.810;9.150;2022-07-01T06:18:57;15.40;45.50
774;DHT22;370;48.810;9.150;2022-07-01T06:21:24;15.50;47.00
774;DHT22;370;48.810;9.150;2022-07-01T06:23:51;15.50;40.80
774;DHT22;370;48.810;9.150;2022-07-01T06:26:19;15.40;42.80
774;DHT22;370;48.810;9.150;2022-07-01T06:28:46;15.50;45.00
774;DHT22;370;48.810;9.150;2022-07-01T06:31:12;15.40;40.60
774;DHT22;370;48.810;9.150;2022-07-01T06:33:39;15.30;40.10
774;DHT22;370;48.810;9.150;2022-07-01T06:36:06;15.20;42.10
774;DHT22;370;48.810;9.150;2022-07-01T06:38:33;15.20;44.30
774;DHT22;370;48.810;9.150;2022-07-01T06:40:59;15.30;47.30
774;DHT22;370;48.810;9.150;2022-07-01T06:43:45;15.30;48.60
774;DHT22;370;48.810;9.150;2022-07-01T06:46:12;15.50;46.80
774;DHT22;370;48.810;9.150;2022-07-01T06:48:38;15.70;45.70
774;DHT22;370;48.810;9.150;2022-07-01T06:51:05;15.70;41.20
774;DHT22;370;48.810;9.150;2022-07-01T06:53:32;15.60;39.20
774;DHT22;370;48.810;9.150;2022-07-01T06:55:59;15.60;41.80
774;DHT22;370;48.810;9.150;2022-07-01T06:58:25;15.60;42.30
774;DHT22;370;48.810;9.150;2022-07-01T07:00:53;15.60;41.10
774;DHT22;370;48.810;9.150;2022-07-01T07:03:20;15.60;43.00
774;DHT22;370;48.810;9.150;2022-07-01T07:05:47;15.60;43.90
774;DHT22;370;48.810;9.150;2022-07-01T07:08:14;15.70;45.70
774;DHT22;370;48.810;9.150;2022-07-01T07:10:41;15.90;44.60
774;DHT22;370;48.810;9.150;2022-07-01T07:13:08;16.00;39.50
774;DHT22;370;48.810;9.150;2022-07-01T07:15:35;16.10;40.30
774;DHT22;370;48.810;9.150;2022-07-01T07:18:03;16.20;35.90
774;DHT22;370;48.810;9.150;2022-07-01T07:20:30;16.20;35.70
774;DHT22;370;48.810;9.150;2022-07-01T07:22:56;16.30;34.60
774;DHT22;370;48.810;9.150;2022-07-01T07:25:23;16.40;35.10
774;DHT22;370;48.810;9.150;2022-07-01T07:27:50;16.40;36.10
774;DHT22;370;48.810;9.150;2022-07-01T07:30:17;16.40;31.20
774;DHT22;370;48.810;9.150;2022-07-01T07:32:44;16.30;32.90
774;DHT22;370;48.810;9.150;2022-07-01T07:35:13;16.30;34.60
774;DHT22;370;48.810;9.150;2022-07-01T07:37:40;16.30;34.30
774;DHT22;370;48.810;9.150;2022-07-01T07:40:09;16.40;35.70
774;DHT22;370;48.810;9.150;2022-07-01T07:42:38;16.50;36.20
774;DHT22;370;48.810;9.150;2022-07-01T07:45:05;16.50;36.50
774;DHT22;370;48.810;9.150;2022-07-01T07:47:33;16.40;27.80
774;DHT22;370;48.810;9.150;2022-07-01T07:49:59;16.40;30.80
774;DHT22;370;48.810;9.150;2022-07-01T07:52:28;16.30;29.00
774;DHT22;370;48.810;9.150;2022-07-01T07:54:55;16.20;31.20
774;DHT22;370;48.810;9.150;2022-07-01T07:57:21;16.30;30.00
774;DHT22;370;48.810;9.150;2022-07-01T07:59:48;16.30;30.80
774;DHT22;370;48.810;9.150;2022-07-01T08:02:15;16.30;30.30
774;DHT22;370;48.810;9.150;2022-07-01T08:04:42;16.40;32.10
774;DHT22;370;48.810;9.150;2022-07-01T08:07:09;16.40;29.70
774;DHT22;370;48.810;9.150;2022-07-01T08:09:37;16.30;30.50
774;DHT22;370;48.810;9.150;2022-07-01T08:12:04;16.30;33.20
774;DHT22;370;48.810;9.150;2022-07-01T08:14:31;16.40;32.70
774;DHT22;370;48.810;9.150;2022-07-01T08:16:58;16.50;32.40
774;DHT22;370;48.810;9.150;2022-07-01T08:19:24;16.50;32.10
774;DHT22;370;48.810;9.150;2022-07-01T08:21:51;16.50;32.80
774;DHT22;370;48.810;9.150;2022-07-01T08:24:18;16.60;31.50
774;DHT22;370;48.810;9.150;2022-07-01T08:26:46;16.60;32.00
774;DHT22;370;48.810;9.150;2022-07-01T08:29:13;16.70;30.70
774;DHT22;370;48.810;9.150;2022-07-01T08:31:40;16.70;30.50
774;DHT22;370;48.810;9.150;2022-07-01T08:34:06;16.80;30.20
774;DHT22;370;48.810;9.150;2022-07-01T08:36:34;16.80;30.50
774;DHT22;370;48.810;9.150;2022-07-01T08:39:02;16.80;31.40
774;DHT22;370;48.810;9.150;2022-07-01T08:41:28;16.90;30.10
774;DHT22;370;48.810;9.150;2022-07-01T08:43:56;16.90;30.00
774;DHT22;370;48.810;9.150;2022-07-01T08:46:24;16.90;29.70
774;DHT22;370;48.810;9.150;2022-07-01T08:48:51;17.00;28.70
774;DHT22;370;48.810;9.150;2022-07-01T08:51:18;16.90;28.70
774;DHT22;370;48.810;9.150;2022-07-01T08:53:45;16.90;31.30
774;DHT22;370;48.810;9.150;2022-07-01T08:56:12;16.80;35.20
774;DHT22;370;48.810;9.150;2022-07-01T08:58:59;17.00;33.40
774;DHT22;370;48.810;9.150;2022-07-01T09:01:26;17.10;32.80
774;DHT22;370;48.810;9.150;2022-07-01T09:03:54;17.30;34.50
774;DHT22;370;48.810;9.150;2022-07-01T09:06:23;17.40;34.40
774;DHT22;370;48.810;9.150;2022-07-01T09:08:50;17.40;31.80
774;DHT22;370;48.810;9.150;2022-07-01T09:11:22;17.40;28.60
774;DHT22;370;48.810;9.150;2022-07-01T09:14:05;17.30;29.00
774;DHT22;370;48.810;9.150;2022-07-01T09:16:40;17.20;29.30
774;DHT22;370;48.810;9.150;2022-07-01T09:19:07;17.10;27.80
774;DHT22;370;48.810;9.150;2022-07-01T09:21:34;17.00;25.20
774;DHT22;370;48.810;9.150;2022-07-01T09:24:03;16.80;26.60
774;DHT22;370;48.810;9.150;2022-07-01T09:26:30;16.80;27.20
774;DHT22;370;48.810;9.150;2022-07-01T09:28:58;16.80;28.40
774;DHT22;370;48.810;9.150;2022-07-01T09:31:32;16.70;28.10
774;DHT22;370;48.810;9.150;2022-07-01T09:34:05;16.70;24.30
774;DHT22;370;48.810;9.150;2022-07-01T09:36:33;16.80;25.60
774;DHT22;370;48.810;9.150;2022-07-01T09:39:04;16.90;24.30
774;DHT22;370;48.810;9.150;2022-07-01T09:41:38;16.70;25.70
774;DHT22;370;48.810;9.150;2022-07-01T09:44:08;16.60;24.50
774;DHT22;370;48.810;9.150;2022-07-01T09:46:36;16.70;25.70
774;DHT22;370;48.810;9.150;2022-07-01T09:49:03;16.90;24.60
774;DHT22;370;48.810;9.150;2022-07-01T09:51:30;16.90;27.00
774;DHT22;370;48.810;9.150;2022-07-01T09:53:57;17.00;23.40
774;DHT22;370;48.810;9.150;2022-07-01T09:56:24;17.20;22.10
774;DHT22;370;48.810;9.150;2022-07-01T09:58:51;17.30;22.90
774;DHT22;370;48.810;9.150;2022-07-01T10:01:18;17.30;26.60
774;DHT22;370;48.810;9.150;2022-07-01T10:03:47;17.40;21.00
774;DHT22;370;48.810;9.150;2022-07-01T10:06:31;17.50;20.00
774;DHT22;370;48.810;9.150;2022-07-01T10:09:12;17.70;21.00
774;DHT22;370;48.810;9.150;2022-07-01T10:11:52;17.80;20.90
774;DHT22;370;48.810;9.150;2022-07-01T10:14:24;18.20;21.80
774;DHT22;370;48.810;9.150;2022-07-01T10:16:51;18.40;19.50
774;DHT22;370;48.810;9.150;2022-07-01T10:19:27;18.60;19.30
774;DHT22;370;48.810;9.150;2022-07-01T10:21:55;18.90;16.10
774;DHT22;370;48.810;9.150;2022-07-01T10:24:25;19.20;17.60
774;DHT22;370;48.810;9.150;2022-07-01T10:26:58;19.80;16.10
774;DHT22;370;48.810;9.150;2022-07-01T10:29:27;20.30;13.00
774;DHT22;370;48.810;9.150;2022-07-01T10:31:55;20.80;8.40
774;DHT22;370;48.810;9.150;2022-07-01T10:34:34;21.20;5.30
774;DHT22;370;48.810;9.150;2022-07-01T10:37:02;21.40;3.80
774;DHT22;370;48.810;9.150;2022-07-01T10:39:29;21.70;5.80
774;DHT22;370;48.810;9.150;2022-07-01T10:41:58;22.60;3.50
774;DHT22;370;48.810;9.150;2022-07-01T10:44:26;23.30;1.00
774;DHT22;370;48.810;9.150;2022-07-01T10:46:55;23.60;1.00
774;DHT22;370;48.810;9.150;2022-07-01T10:49:56;23.50;1.00
774;DHT22;370;48.810;9.150;2022-07-01T10:52:23;23.60;1.00
774;DHT22;370;48.810;9.150;2022-07-01T10:54:52;23.50;1.00
774;DHT22;370;48.810;9.150;2022-07-01T10:57:30;23.50;1.00
774;DHT22;370;48.810;9.150;2022-07-01T11:00:27;23.30;1.00
774;DHT22;370;48.810;9.150;2022-07-01T11:03:16;23.30;1.00
774;DHT22;370;48.810;9.150;2022-07-01T11:05:47;23.40;1.00
774;DHT22;370;48.810;9.150;2022-07-01T11:08:14;23.20;1.00
774;DHT22;370;48.810;9.150;2022-07-01T11:10:41;23.00;1.00
774;DHT22;370;48.810;9.150;2022-07-01T11:13:13;23.10;1.00
774;DHT22;370;48.810;9.150;2022-07-01T11:15:40;23.00;1.00
774;DHT22;370;48.810;9.150;2022-07-01T11:18:07;23.00;1.00
774;DHT22;370;48.810;9.150;2022-07-01T11:20:34;22.80;1.00
774;DHT22;370;48.810;9.150;2022-07-01T11:23:02;22.50;1.00
774;DHT22;370;48.810;9.150;2022-07-01T11:25:30;22.20;1.00
774;DHT22;370;48.810;9.150;2022-07-01T11:27:57;22.00;1.00
774;DHT22;370;48.810;9.150;2022-07-01T11:30:24;22.00;1.00
774;DHT22;370;48.810;9.150;2022-07-01T11:32:52;22.30;1.00
774;DHT22;370;48.810;9.150;2022-07-01T11:35:21;22.70;1.00
774;DHT22;370;48.810;9.150;2022-07-01T11:38:10;23.00;1.00
774;DHT22;370;48.810;9.150;2022-07-01T11:40:55;25.30;1.00
774;DHT22;370;48.810;9.150;2022-07-01T11:43:23;26.30;1.00
774;DHT22;370;48.810;9.150;2022-07-01T11:45:50;26.20;1.00
774;DHT22;370;48.810;9.150;2022-07-01T11:48:32;25.70;1.00
774;DHT22;370;48.810;9.150;2022-07-01T11:51:00;24.50;1.00
774;DHT22;370;48.810;9.150;2022-07-01T11:53:29;23.80;1.00
774;DHT22;370;48.810;9.150;2022-07-01T11:55:56;25.60;1.00
774;DHT22;370;48.810;9.150;2022-07-01T11:58:22;28.80;1.00
774;DHT22;370;48.810;9.150;2022-07-01T12:01:01;31.00;1.00
774;DHT22;370;48.810;9.150;2022-07-01T12:03:29;31.40;1.00
774;DHT22;370;48.810;9.150;2022-07-01T12:05:57;29.00;1.00
774;DHT22;370;48.810;9.150;2022-07-01T12:08:24;28.60;1.00
774;DHT22;370;48.810;9.150;2022-07-01T12:10:53;27.10;1.00
774;DHT22;370;48.810;9.150;2022-07-01T12:13:21;25.80;1.00
774;DHT22;370;48.810;9.150;2022-07-01T12:15:47;25.80;1.00
774;DHT22;370;48.810;9.150;2022-07-01T12:18:15;25.90;1.00
774;DHT22;370;48.810;9.150;2022-07-01T12:20:48;26.80;1.00
774;DHT22;370;48.810;9.150;2022-07-01T12:23:15;27.70;1.00
774;DHT22;370;48.810;9.150;2022-07-01T12:25:47;27.40;1.00
774;DHT22;370;48.810;9.150;2022-07-01T12:28:26;27.20;1.00
774;DHT22;370;48.810;9.150;2022-07-01T12:31:02;27.30;1.00
774;DHT22;370;48.810;9.150;2022-07-01T12:33:30;27.60;1.00
774;DHT22;370;48.810;9.150;2022-07-01T12:35:56;27.80;1.00
774;DHT22;370;48.810;9.150;2022-07-01T12:38:23;25.80;1.00
774;DHT22;370;48.810;9.150;2022-07-01T12:40:50;25.80;1.00
774;DHT22;370;48.810;9.150;2022-07-01T12:43:27;25.40;1.00
774;DHT22;370;48.810;9.150;2022-07-01T12:45:56;23.00;1.00
774;DHT22;370;48.810;9.150;2022-07-01T12:48:22;23.10;1.00
774;DHT22;370;48.810;9.150;2022-07-01T12:50:52;23.20;1.00
774;DHT22;370;48.810;9.150;2022-07-01T12:53:20;23.10;1.00
774;DHT22;370;48.810;9.150;2022-07-01T12:55:49;23.00;1.00
774;DHT22;370;48.810;9.150;2022-07-01T12:58:18;23.20;1.00
774;DHT22;370;48.810;9.150;2022-07-01T13:00:48;23.40;1.00
774;DHT22;370;48.810;9.150;2022-07-01T13:03:19;23.50;1.00
774;DHT22;370;48.810;9.150;2022-07-01T13:09:46;22.30;1.00
774;DHT22;370;48.810;9.150;2022-07-01T13:15:35;20.60;1.00
774;DHT22;370;48.810;9.150;2022-07-01T13:18:03;19.70;1.00
774;DHT22;370;48.810;9.150;2022-07-01T13:20:30;20.40;3.00
774;DHT22;370;48.810;9.150;2022-07-01T13:22:57;20.80;1.00
774;DHT22;370;48.810;9.150;2022-07-01T13:25:24;21.30;1.00
774;DHT22;370;48.810;9.150;2022-07-01T13:27:51;20.80;1.00
774;DHT22;370;48.810;9.150;2022-07-01T13:30:18;20.60;1.00
774;DHT22;370;48.810;9.150;2022-07-01T13:32:45;19.70;1.30
774;DHT22;370;48.810;9.150;2022-07-01T13:35:13;20.00;2.00
774;DHT22;370;48.810;9.150;2022-07-01T13:37:42;20.40;2.60
774;DHT22;370;48.810;9.150;2022-07-01T13:40:09;21.20;1.00
774;DHT22;370;48.810;9.150;2022-07-01T13:42:37;20.20;1.00
774;DHT22;370;48.810;9.150;2022-07-01T13:45:04;20.20;2.90
774;DHT22;370;48.810;9.150;2022-07-01T13:47:31;19.90;5.00
774;DHT22;370;48.810;9.150;2022-07-01T13:49:58;19.50;5.90
774;DHT22;370;48.810;9.150;2022-07-01T13:52:27;19.70;4.70
774;DHT22;370;48.810;9.150;2022-07-01T13:54:54;19.90;6.60
774;DHT22;370;48.810;9.150;2022-07-01T13:57:21;20.10;3.90
774;DHT22;370;48.810;9.150;2022-07-01T13:59:48;19.50;5.60
774;DHT22;370;48.810;9.150;2022-07-01T14:02:14;19.70;5.10
774;DHT22;370;48.810;9.150;2022-07-01T14:04:43;19.90;5.50
774;DHT22;370;48.810;9.150;2022-07-01T14:07:10;20.30;5.50
774;DHT22;370;48.810;9.150;2022-07-01T14:09:38;21.40;1.70
774;DHT22;370;48.810;9.150;2022-07-01T14:12:06;22.50;1.00
774;DHT22;370;48.810;9.150;2022-07-01T14:14:33;23.50;1.00
774;DHT22;370;48.810;9.150;2022-07-01T14:17:00;23.70;1.00
774;DHT22;370;48.810;9.150;2022-07-01T14:19:26;23.60;1.00
774;DHT22;370;48.810;9.150;2022-07-01T14:21:54;24.90;1.00
774;DHT22;370;48.810;9.150;2022-07-01T14:24:21;25.60;1.00
774;DHT22;370;48.810;9.150;2022-07-01T14:26:49;25.50;1.00
774;DHT22;370;48.810;9.150;2022-07-01T14:29:16;25.20;1.00
774;DHT22;370;48.810;9.150;2022-07-01T14:31:42;25.00;1.00
774;DHT22;370;48.810;9.150;2022-07-01T14:34:09;24.70;1.00
774;DHT22;370;48.810;9.150;2022-07-01T14:36:36;24.80;1.00
774;DHT22;370;48.810;9.150;2022-07-01T14:39:03;24.30;1.00
774;DHT22;370;48.810;9.150;2022-07-01T14:41:30;23.90;1.00
774;DHT22;370;48.810;9.150;2022-07-01T14:43:58;23.90;1.00
774;DHT22;370;48.810;9.150;2022-07-01T14:46:24;24.50;1.00
774;DHT22;370;48.810;9.150;2022-07-01T14:48:51;24.40;1.00
774;DHT22;370;48.810;9.150;2022-07-01T14:51:18;24.10;1.00
774;DHT22;370;48.810;9.150;2022-07-01T14:53:45;23.80;1.00
774;DHT22;370;48.810;9.150;2022-07-01T14:56:12;22.60;1.00
774;DHT22;370;48.810;9.150;2022-07-01T14:58:39;22.20;1.00
774;DHT22;370;48.810;9.150;2022-07-01T15:01:09;22.50;1.00
774;DHT22;370;48.810;9.150;2022-07-01T15:03:36;22.50;1.00
774;DHT22;370;48.810;9.150;2022-07-01T15:06:03;22.60;1.00
774;DHT22;370;48.810;9.150;2022-07-01T15:08:30;22.90;1.00
774;DHT22;370;48.810;9.150;2022-07-01T15:10:57;23.00;1.00
774;DHT22;370;48.810;9.150;2022-07-01T15:13:29;22.80;1.00
774;DHT22;370;48.810;9.150;2022-07-01T15:15:56;22.20;1.00
774;DHT22;370;48.810;9.150;2022-07-01T15:18:25;22.00;1.00
774;DHT22;370;48.810;9.150;2022-07-01T15:20:52;22.10;1.00
774;DHT22;370;48.810;9.150;2022-07-01T15:23:18;22.50;1.00
774;DHT22;370;48.810;9.150;2022-07-01T15:25:45;22.80;1.00
774;DHT22;370;48.810;9.150;2022-07-01T15:28:12;23.10;1.00
774;DHT22;370;48.810;9.150;2022-07-01T15:30:39;23.30;1.00
774;DHT22;370;48.810;9.150;2022-07-01T15:33:06;23.00;1.00
774;DHT22;370;48.810;9.150;2022-07-01T15:35:34;22.50;1.00
774;DHT22;370;48.810;9.150;2022-07-01T15:38:01;22.10;1.00
774;DHT22;370;48.810;9.150;2022-07-01T15:40:28;22.30;1.00
774;DHT22;370;48.810;9.150;2022-07-01T15:42:54;22.30;1.00
774;DHT22;370;48.810;9.150;2022-07-01T15:45:21;22.00;1.00
774;DHT22;370;48.810;9.150;2022-07-01T15:47:48;21.80;1.00
774;DHT22;370;48.810;9.150;2022-07-01T15:50:37;21.80;1.00
774;DHT22;370;48.810;9.150;2022-07-01T15:53:04;22.20;1.00
774;DHT22;370;48.810;9.150;2022-07-01T15:55:31;22.30;1.00
774;DHT22;370;48.810;9.150;2022-07-01T15:57:58;22.30;1.00
774;DHT22;370;48.810;9.150;2022-07-01T16:00:25;22.00;1.00
774;DHT22;370;48.810;9.150;2022-07-01T16:02:53;22.00;1.00
774;DHT22;370;48.810;9.150;2022-07-01T16:05:20;22.30;1.00
774;DHT22;370;48.810;9.150;2022-07-01T16:07:50;22.30;1.00
774;DHT22;370;48.810;9.150;2022-07-01T16:10:31;22.30;1.00
774;DHT22;370;48.810;9.150;2022-07-01T16:13:00;22.40;1.00
774;DHT22;370;48.810;9.150;2022-07-01T16:15:28;22.70;1.00
774;DHT22;370;48.810;9.150;2022-07-01T16:17:59;22.80;1.00
774;DHT22;370;48.810;9.150;2022-07-01T16:20:27;22.80;1.00
774;DHT22;370;48.810;9.150;2022-07-01T16:22:55;22.50;1.00
774;DHT22;370;48.810;9.150;2022-07-01T16:25:23;22.40;1.00
774;DHT22;370;48.810;9.150;2022-07-01T16:27:52;22.30;1.00
774;DHT22;370;48.810;9.150;2022-07-01T16:30:18;21.90;1.00
774;DHT22;370;48.810;9.150;2022-07-01T16:32:47;22.10;1.00
774;DHT22;370;48.810;9.150;2022-07-01T16:35:14;22.30;1.00
774;DHT22;370;48.810;9.150;2022-07-01T16:37:42;22.10;1.00
774;DHT22;370;48.810;9.150;2022-07-01T16:40:17;22.00;1.00
774;DHT22;370;48.810;9.150;2022-07-01T16:42:48;21.60;1.00
774;DHT22;370;48.810;9.150;2022-07-01T16:45:16;21.60;1.00
774;DHT22;370;48.810;9.150;2022-07-01T16:47:49;21.60;1.00
774;DHT22;370;48.810;9.150;2022-07-01T16:50:23;21.40;1.00
774;DHT22;370;48.810;9.150;2022-07-01T16:52:51;21.20;1.00
774;DHT22;370;48.810;9.150;2022-07-01T16:55:26;20.90;1.00
774;DHT22;370;48.810;9.150;2022-07-01T16:57:58;21.00;1.00